sensor_id;sensor_type;location;lat;lon;timestamp;P1;durP1;ratioP1;P2;durP2;ratioP2
18838;SDS011;9548;56.920;14.804;2022-12-07T00:01:39;5.80;;;2.77;;
18838;SDS011;9548;56.920;14.804;2022-12-07T00:04:11;5.93;;;2.73;;
18838;SDS011;9548;56.920;14.804;2022-12-07T00:06:39;5.20;;;2.87;;
18838;SDS011;9548;56.920;14.804;2022-12-07T00:09:09;4.20;;;2.43;;
18838;SDS011;9548;56.920;14.804;2022-12-07T00:11:38;3.03;;;2.27;;
18838;SDS011;9548;56.920;14.804;2022-12-07T00:14:06;4.20;;;2.70;;
18838;SDS011;9548;56.920;14.804;2022-12-07T00:16:36;4.17;;;2.37;;
18838;SDS011;9548;56.920;14.804;2022-12-07T00:19:03;6.17;;;2.30;;
18838;SDS011;9548;56.920;14.804;2022-12-07T00:21:32;5.13;;;2.57;;
18838;SDS011;9548;56.920;14.804;2022-12-07T00:24:01;6.13;;;2.50;;
18838;SDS011;9548;56.920;14.804;2022-12-07T00:26:29;6.23;;;3.03;;
18838;SDS011;9548;56.920;14.804;2022-12-07T00:28:58;6.57;;;2.83;;
18838;SDS011;9548;56.920;14.804;2022-12-07T00:31:27;7.90;;;3.13;;
18838;SDS011;9548;56.920;14.804;2022-12-07T00:33:55;5.47;;;2.70;;
18838;SDS011;9548;56.920;14.804;2022-12-07T00:36:23;4.80;;;2.63;;
18838;SDS011;9548;56.920;14.804;2022-12-07T00:38:52;5.93;;;2.90;;
18838;SDS011;9548;56.920;14.804;2022-12-07T00:41:20;4.80;;;2.47;;
18838;SDS011;9548;56.920;14.804;2022-12-07T00:43:48;5.63;;;3.23;;
18838;SDS011;9548;56.920;14.804;2022-12-07T00:46:16;5.40;;;2.93;;
18838;SDS011;9548;56.920;14.804;2022-12-07T00:48:43;4.40;;;2.60;;
18838;SDS011;9548;56.920;14.804;2022-12-07T00:51:11;5.63;;;3.00;;
18838;SDS011;9548;56.920;14.804;2022-12-07T00:53:40;7.83;;;3.20;;
18838;SDS011;9548;56.920;14.804;2022-12-07T00:56:09;4.50;;;2.57;;
18838;SDS011;9548;56.920;14.804;2022-12-07T00:58:38;7.83;;;3.70;;
18838;SDS011;9548;56.920;14.804;2022-12-07T01:01:05;8.03;;;3.33;;
18838;SDS011;9548;56.920;14.804;2022-12-07T01:03:32;6.40;;;2.97;;
18838;SDS011;9548;56.920;14.804;2022-12-07T01:06:00;6.33;;;3.10;;
18838;SDS011;9548;56.920;14.804;2022-12-07T01:08:27;6.63;;;2.97;;
18838;SDS011;9548;56.920;14.804;2022-12-07T01:10:58;7.50;;;3.33;;
18838;SDS011;9548;56.920;14.804;2022-12-07T01:13:27;8.23;;;3.00;;
18838;SDS011;9548;56.920;14.804;2022-12-07T01:15:56;5.18;;;2.85;;
18838;SDS011;9548;56.920;14.804;2022-12-07T01:18:25;7.30;;;3.10;;
18838;SDS011;9548;56.920;14.804;2022-12-07T01:20:59;6.03;;;3.13;;
18838;SDS011;9548;56.920;14.804;2022-12-07T01:23:28;7.20;;;3.10;;
18838;SDS011;9548;56.920;14.804;2022-12-07T01:25:55;7.87;;;3.00;;
18838;SDS011;9548;56.920;14.804;2022-12-07T01:28:23;7.27;;;3.27;;
18838;SDS011;9548;56.920;14.804;2022-12-07T01:31:01;6.07;;;3.20;;
18838;SDS011;9548;56.920;14.804;2022-12-07T01:33:30;5.10;;;2.97;;
18838;SDS011;9548;56.920;14.804;2022-12-07T01:36:01;5.60;;;2.93;;
18838;SDS011;9548;56.920;14.804;2022-12-07T01:38:29;5.67;;;2.60;;
18838;SDS011;9548;56.920;14.804;2022-12-07T01:40:56;6.35;;;3.03;;
18838;SDS011;9548;56.920;14.804;2022-12-07T01:43:24;6.07;;;2.60;;
18838;SDS011;9548;56.920;14.804;2022-12-07T01:45:53;5.10;;;2.83;;
18838;SDS011;9548;56.920;14.804;2022-12-07T01:48:22;6.03;;;3.17;;
18838;SDS011;9548;56.920;14.804;2022-12-07T01:50:52;4.93;;;2.90;;
18838;SDS011;9548;56.920;14.804;2022-12-07T01:53:22;6.03;;;2.90;;
18838;SDS011;9548;56.920;14.804;2022-12-07T01:55:53;5.80;;;2.90;;
18838;SDS011;9548;56.920;14.804;2022-12-07T01:58:21;6.00;;;2.53;;
18838;SDS011;9548;56.920;14.804;2022-12-07T02:00:48;6.63;;;2.97;;
18838;SDS011;9548;56.920;14.804;2022-12-07T02:03:16;6.57;;;3.00;;
18838;SDS011;9548;56.920;14.804;2022-12-07T02:05:48;5.23;;;2.37;;
18838;SDS011;9548;56.920;14.804;2022-12-07T02:08:16;6.30;;;2.70;;
18838;SDS011;9548;56.920;14.804;2022-12-07T02:10:44;5.10;;;2.60;;
18838;SDS011;9548;56.920;14.804;2022-12-07T02:13:12;5.07;;;2.70;;
18838;SDS011;9548;56.920;14.804;2022-12-07T02:15:45;4.73;;;2.87;;
18838;SDS011;9548;56.920;14.804;2022-12-07T02:18:25;5.50;;;2.90;;
18838;SDS011;9548;56.920;14.804;2022-12-07T02:21:05;7.23;;;3.10;;
18838;SDS011;9548;56.920;14.804;2022-12-07T02:23:41;6.53;;;3.43;;
18838;SDS011;9548;56.920;14.804;2022-12-07T02:29:17;7.03;;;2.77;;
18838;SDS011;9548;56.920;14.804;2022-12-07T02:31:50;6.40;;;3.10;;
18838;SDS011;9548;56.920;14.804;2022-12-07T02:34:28;7.63;;;3.07;;
18838;SDS011;9548;56.920;14.804;2022-12-07T02:37:03;7.87;;;3.20;;
18838;SDS011;9548;56.920;14.804;2022-12-07T02:39:37;4.53;;;2.70;;
18838;SDS011;9548;56.920;14.804;2022-12-07T02:42:12;7.13;;;2.90;;
18838;SDS011;9548;56.920;14.804;2022-12-07T02:44:45;5.93;;;2.70;;
18838;SDS011;9548;56.920;14.804;2022-12-07T02:47:14;7.60;;;3.07;;
18838;SDS011;9548;56.920;14.804;2022-12-07T02:49:43;7.47;;;2.50;;
18838;SDS011;9548;56.920;14.804;2022-12-07T02:52:11;4.67;;;2.70;;
18838;SDS011;9548;56.920;14.804;2022-12-07T02:54:38;6.10;;;2.33;;
18838;SDS011;9548;56.920;14.804;2022-12-07T02:57:08;6.03;;;2.40;;
18838;SDS011;9548;56.920;14.804;2022-12-07T02:59:53;4.87;;;2.23;;
18838;SDS011;9548;56.920;14.804;2022-12-07T03:02:28;5.97;;;2.30;;
18838;SDS011;9548;56.920;14.804;2022-12-07T03:05:06;7.20;;;2.40;;
18838;SDS011;9548;56.920;14.804;2022-12-07T03:07:43;7.17;;;1.97;;
18838;SDS011;9548;56.920;14.804;2022-12-07T03:10:17;5.93;;;2.37;;
18838;SDS011;9548;56.920;14.804;2022-12-07T03:12:51;4.27;;;2.10;;
18838;SDS011;9548;56.920;14.804;2022-12-07T03:15:31;5.60;;;2.40;;
18838;SDS011;9548;56.920;14.804;2022-12-07T03:18:00;3.37;;;2.10;;
18838;SDS011;9548;56.920;14.804;2022-12-07T03:20:30;6.70;;;2.07;;
18838;SDS011;9548;56.920;14.804;2022-12-07T03:23:00;3.40;;;2.17;;
18838;SDS011;9548;56.920;14.804;2022-12-07T03:25:30;6.93;;;2.40;;
18838;SDS011;9548;56.920;14.804;2022-12-07T03:28:00;5.13;;;2.20;;
18838;SDS011;9548;56.920;14.804;2022-12-07T03:30:32;3.60;;;1.97;;
18838;SDS011;9548;56.920;14.804;2022-12-07T03:33:06;5.70;;;2.40;;
18838;SDS011;9548;56.920;14.804;2022-12-07T03:35:38;3.93;;;2.10;;
18838;SDS011;9548;56.920;14.804;2022-12-07T03:38:11;8.67;;;2.47;;
18838;SDS011;9548;56.920;14.804;2022-12-07T03:40:45;4.27;;;2.17;;
18838;SDS011;9548;56.920;14.804;2022-12-07T03:43:16;5.63;;;2.30;;
18838;SDS011;9548;56.920;14.804;2022-12-07T03:45:48;6.80;;;2.57;;
18838;SDS011;9548;56.920;14.804;2022-12-07T03:48:24;7.57;;;2.50;;
18838;SDS011;9548;56.920;14.804;2022-12-07T03:50:59;5.77;;;2.30;;
18838;SDS011;9548;56.920;14.804;2022-12-07T03:53:33;4.70;;;2.10;;
18838;SDS011;9548;56.920;14.804;2022-12-07T03:56:04;4.83;;;2.27;;
18838;SDS011;9548;56.920;14.804;2022-12-07T03:58:32;6.17;;;2.27;;
18838;SDS011;9548;56.920;14.804;2022-12-07T04:01:01;6.43;;;2.53;;
18838;SDS011;9548;56.920;14.804;2022-12-07T04:03:29;3.93;;;2.10;;
18838;SDS011;9548;56.920;14.804;2022-12-07T04:05:55;4.83;;;1.70;;
18838;SDS011;9548;56.920;14.804;2022-12-07T04:08:23;4.37;;;1.67;;
18838;SDS011;9548;56.920;14.804;2022-12-07T04:10:51;4.20;;;1.70;;
18838;SDS011;9548;56.920;14.804;2022-12-07T04:13:17;3.93;;;1.67;;
18838;SDS011;9548;56.920;14.804;2022-12-07T04:15:44;5.07;;;1.60;;
18838;SDS011;9548;56.920;14.804;2022-12-07T04:18:13;7.00;;;1.63;;
18838;SDS011;9548;56.920;14.804;2022-12-07T04:20:40;7.70;;;1.47;;
18838;SDS011;9548;56.920;14.804;2022-12-07T04:23:07;3.43;;;1.50;;
18838;SDS011;9548;56.920;14.804;2022-12-07T04:25:34;4.67;;;1.37;;
18838;SDS011;9548;56.920;14.804;2022-12-07T04:28:01;2.17;;;1.40;;
18838;SDS011;9548;56.920;14.804;2022-12-07T04:30:28;3.57;;;1.27;;
18838;SDS011;9548;56.920;14.804;2022-12-07T04:32:54;3.50;;;1.50;;
18838;SDS011;9548;56.920;14.804;2022-12-07T04:35:23;2.20;;;1.50;;
18838;SDS011;9548;56.920;14.804;2022-12-07T04:37:50;2.83;;;1.37;;
18838;SDS011;9548;56.920;14.804;2022-12-07T04:40:17;3.07;;;1.23;;
18838;SDS011;9548;56.920;14.804;2022-12-07T04:42:44;1.80;;;1.03;;
18838;SDS011;9548;56.920;14.804;2022-12-07T04:45:11;2.60;;;1.40;;
18838;SDS011;9548;56.920;14.804;2022-12-07T04:47:37;2.40;;;1.17;;
18838;SDS011;9548;56.920;14.804;2022-12-07T04:50:05;2.83;;;1.00;;
18838;SDS011;9548;56.920;14.804;2022-12-07T04:52:34;2.47;;;1.20;;
18838;SDS011;9548;56.920;14.804;2022-12-07T04:55:01;2.40;;;1.30;;
18838;SDS011;9548;56.920;14.804;2022-12-07T04:57:28;2.03;;;1.17;;
18838;SDS011;9548;56.920;14.804;2022-12-07T04:59:55;3.97;;;1.70;;
18838;SDS011;9548;56.920;14.804;2022-12-07T05:02:22;2.90;;;1.20;;
18838;SDS011;9548;56.920;14.804;2022-12-07T05:04:49;2.03;;;1.20;;
18838;SDS011;9548;56.920;14.804;2022-12-07T05:07:16;2.03;;;1.10;;
18838;SDS011;9548;56.920;14.804;2022-12-07T05:09:44;4.60;;;1.30;;
18838;SDS011;9548;56.920;14.804;2022-12-07T05:12:11;3.10;;;1.23;;
18838;SDS011;9548;56.920;14.804;2022-12-07T05:14:39;3.10;;;1.10;;
18838;SDS011;9548;56.920;14.804;2022-12-07T05:17:06;4.40;;;1.30;;
18838;SDS011;9548;56.920;14.804;2022-12-07T05:19:32;3.53;;;1.30;;
18838;SDS011;9548;56.920;14.804;2022-12-07T05:21:59;1.83;;;1.00;;
18838;SDS011;9548;56.920;14.804;2022-12-07T05:24:26;7.43;;;1.53;;
18838;SDS011;9548;56.920;14.804;2022-12-07T05:26:54;2.97;;;0.90;;
18838;SDS011;9548;56.920;14.804;2022-12-07T05:29:21;3.37;;;1.40;;
18838;SDS011;9548;56.920;14.804;2022-12-07T05:31:48;6.93;;;1.63;;
18838;SDS011;9548;56.920;14.804;2022-12-07T05:34:15;3.17;;;1.50;;
18838;SDS011;9548;56.920;14.804;2022-12-07T05:36:42;4.80;;;1.37;;
18838;SDS011;9548;56.920;14.804;2022-12-07T05:39:09;2.77;;;1.10;;
18838;SDS011;9548;56.920;14.804;2022-12-07T05:41:36;2.67;;;1.10;;
18838;SDS011;9548;56.920;14.804;2022-12-07T05:44:22;2.20;;;1.10;;
18838;SDS011;9548;56.920;14.804;2022-12-07T05:46:49;5.80;;;1.30;;
18838;SDS011;9548;56.920;14.804;2022-12-07T05:49:16;3.10;;;1.27;;
18838;SDS011;9548;56.920;14.804;2022-12-07T05:51:43;1.33;;;1.07;;
18838;SDS011;9548;56.920;14.804;2022-12-07T05:54:10;4.63;;;0.83;;
18838;SDS011;9548;56.920;14.804;2022-12-07T05:56:37;1.60;;;1.20;;
18838;SDS011;9548;56.920;14.804;2022-12-07T05:59:04;4.07;;;0.80;;
18838;SDS011;9548;56.920;14.804;2022-12-07T06:01:49;1.57;;;0.90;;
18838;SDS011;9548;56.920;14.804;2022-12-07T06:04:17;4.67;;;1.30;;
18838;SDS011;9548;56.920;14.804;2022-12-07T06:06:44;4.40;;;1.17;;
18838;SDS011;9548;56.920;14.804;2022-12-07T06:09:11;2.70;;;1.13;;
18838;SDS011;9548;56.920;14.804;2022-12-07T06:11:38;2.50;;;1.13;;
18838;SDS011;9548;56.920;14.804;2022-12-07T06:14:23;5.97;;;1.10;;
18838;SDS011;9548;56.920;14.804;2022-12-07T06:16:52;3.33;;;1.10;;
18838;SDS011;9548;56.920;14.804;2022-12-07T06:19:19;2.53;;;0.97;;
18838;SDS011;9548;56.920;14.804;2022-12-07T06:21:46;3.20;;;1.40;;
18838;SDS011;9548;56.920;14.804;2022-12-07T06:24:14;3.23;;;1.67;;
18838;SDS011;9548;56.920;14.804;2022-12-07T06:26:41;3.67;;;1.77;;
18838;SDS011;9548;56.920;14.804;2022-12-07T06:29:09;2.13;;;0.90;;
18838;SDS011;9548;56.920;14.804;2022-12-07T06:31:37;2.00;;;0.93;;
18838;SDS011;9548;56.920;14.804;2022-12-07T06:34:06;3.83;;;1.13;;
18838;SDS011;9548;56.920;14.804;2022-12-07T06:36:35;2.60;;;1.23;;
18838;SDS011;9548;56.920;14.804;2022-12-07T06:39:02;5.00;;;1.67;;
18838;SDS011;9548;56.920;14.804;2022-12-07T06:41:30;1.40;;;0.90;;
18838;SDS011;9548;56.920;14.804;2022-12-07T06:43:57;2.43;;;0.90;;
18838;SDS011;9548;56.920;14.804;2022-12-07T06:46:24;1.73;;;1.03;;
18838;SDS011;9548;56.920;14.804;2022-12-07T06:48:51;4.63;;;0.80;;
18838;SDS011;9548;56.920;14.804;2022-12-07T06:51:19;1.07;;;0.73;;
18838;SDS011;9548;56.920;14.804;2022-12-07T06:53:47;6.63;;;1.30;;
18838;SDS011;9548;56.920;14.804;2022-12-07T06:56:13;2.83;;;0.90;;
18838;SDS011;9548;56.920;14.804;2022-12-07T06:58:41;2.83;;;1.00;;
18838;SDS011;9548;56.920;14.804;2022-12-07T07:01:08;4.73;;;0.87;;
18838;SDS011;9548;56.920;14.804;2022-12-07T07:03:36;4.47;;;0.73;;
18838;SDS011;9548;56.920;14.804;2022-12-07T07:06:03;2.53;;;1.00;;
18838;SDS011;9548;56.920;14.804;2022-12-07T07:08:32;1.97;;;0.90;;
18838;SDS011;9548;56.920;14.804;2022-12-07T07:10:59;2.63;;;0.83;;
18838;SDS011;9548;56.920;14.804;2022-12-07T07:13:26;2.43;;;0.90;;
18838;SDS011;9548;56.920;14.804;2022-12-07T07:15:53;4.07;;;1.00;;
18838;SDS011;9548;56.920;14.804;2022-12-07T07:18:20;2.10;;;1.00;;
18838;SDS011;9548;56.920;14.804;2022-12-07T07:20:47;2.23;;;0.83;;
18838;SDS011;9548;56.920;14.804;2022-12-07T07:23:16;2.73;;;0.97;;
18838;SDS011;9548;56.920;14.804;2022-12-07T07:25:45;5.17;;;0.90;;
18838;SDS011;9548;56.920;14.804;2022-12-07T07:28:12;1.93;;;0.93;;
18838;SDS011;9548;56.920;14.804;2022-12-07T07:30:39;1.10;;;0.87;;
18838;SDS011;9548;56.920;14.804;2022-12-07T07:33:06;1.40;;;0.63;;
18838;SDS011;9548;56.920;14.804;2022-12-07T07:35:33;2.40;;;0.70;;
18838;SDS011;9548;56.920;14.804;2022-12-07T07:38:01;2.77;;;0.80;;
18838;SDS011;9548;56.920;14.804;2022-12-07T07:40:28;1.97;;;0.80;;
18838;SDS011;9548;56.920;14.804;2022-12-07T07:42:57;0.60;;;0.50;;
18838;SDS011;9548;56.920;14.804;2022-12-07T07:45:25;2.13;;;0.90;;
18838;SDS011;9548;56.920;14.804;2022-12-07T07:47:53;1.00;;;0.90;;
18838;SDS011;9548;56.920;14.804;2022-12-07T07:50:21;2.47;;;0.90;;
18838;SDS011;9548;56.920;14.804;2022-12-07T07:52:48;5.10;;;1.10;;
18838;SDS011;9548;56.920;14.804;2022-12-07T07:55:16;10.70;;;2.60;;
18838;SDS011;9548;56.920;14.804;2022-12-07T07:57:43;9.47;;;2.67;;
18838;SDS011;9548;56.920;14.804;2022-12-07T08:00:13;13.07;;;3.27;;
18838;SDS011;9548;56.920;14.804;2022-12-07T08:02:41;5.00;;;1.73;;
18838;SDS011;9548;56.920;14.804;2022-12-07T08:05:09;1.63;;;0.70;;
18838;SDS011;9548;56.920;14.804;2022-12-07T08:07:37;1.33;;;0.67;;
18838;SDS011;9548;56.920;14.804;2022-12-07T08:10:04;0.67;;;0.60;;
18838;SDS011;9548;56.920;14.804;2022-12-07T08:12:35;3.53;;;0.60;;
18838;SDS011;9548;56.920;14.804;2022-12-07T08:15:24;0.93;;;0.70;;
18838;SDS011;9548;56.920;14.804;2022-12-07T08:17:51;2.47;;;1.17;;
18838;SDS011;9548;56.920;14.804;2022-12-07T08:20:18;3.77;;;0.80;;
18838;SDS011;9548;56.920;14.804;2022-12-07T08:22:45;4.37;;;1.00;;
18838;SDS011;9548;56.920;14.804;2022-12-07T08:25:12;3.70;;;0.73;;
18838;SDS011;9548;56.920;14.804;2022-12-07T08:27:39;3.83;;;0.73;;
18838;SDS011;9548;56.920;14.804;2022-12-07T08:30:06;4.13;;;0.67;;
18838;SDS011;9548;56.920;14.804;2022-12-07T08:32:35;3.40;;;1.10;;
18838;SDS011;9548;56.920;14.804;2022-12-07T08:35:02;2.17;;;0.70;;
18838;SDS011;9548;56.920;14.804;2022-12-07T08:37:29;2.33;;;0.97;;
18838;SDS011;9548;56.920;14.804;2022-12-07T08:39:57;6.80;;;1.00;;
18838;SDS011;9548;56.920;14.804;2022-12-07T08:42:24;1.43;;;0.63;;
18838;SDS011;9548;56.920;14.804;2022-12-07T08:44:54;4.03;;;0.60;;
18838;SDS011;9548;56.920;14.804;2022-12-07T08:47:22;4.80;;;0.70;;
18838;SDS011;9548;56.920;14.804;2022-12-07T08:49:51;3.20;;;0.50;;
18838;SDS011;9548;56.920;14.804;2022-12-07T08:52:20;1.30;;;0.43;;
18838;SDS011;9548;56.920;14.804;2022-12-07T08:54:47;3.90;;;0.90;;
18838;SDS011;9548;56.920;14.804;2022-12-07T08:57:14;5.33;;;0.80;;
18838;SDS011;9548;56.920;14.804;2022-12-07T08:59:41;0.70;;;0.47;;
18838;SDS011;9548;56.920;14.804;2022-12-07T09:02:08;4.03;;;0.90;;
18838;SDS011;9548;56.920;14.804;2022-12-07T09:04:35;3.50;;;0.90;;
18838;SDS011;9548;56.920;14.804;2022-12-07T09:07:03;3.77;;;0.70;;
18838;SDS011;9548;56.920;14.804;2022-12-07T09:09:31;3.70;;;0.77;;
18838;SDS011;9548;56.920;14.804;2022-12-07T09:11:58;3.20;;;0.60;;
18838;SDS011;9548;56.920;14.804;2022-12-07T09:14:25;6.07;;;0.97;;
18838;SDS011;9548;56.920;14.804;2022-12-07T09:16:52;2.70;;;0.67;;
18838;SDS011;9548;56.920;14.804;2022-12-07T09:19:19;0.97;;;0.50;;
18838;SDS011;9548;56.920;14.804;2022-12-07T09:21:46;2.83;;;0.60;;
18838;SDS011;9548;56.920;14.804;2022-12-07T09:24:14;2.37;;;0.50;;
18838;SDS011;9548;56.920;14.804;2022-12-07T09:26:41;6.77;;;0.60;;
18838;SDS011;9548;56.920;14.804;2022-12-07T09:29:09;2.40;;;0.70;;
18838;SDS011;9548;56.920;14.804;2022-12-07T09:31:36;3.80;;;0.30;;
18838;SDS011;9548;56.920;14.804;2022-12-07T09:34:03;3.73;;;0.50;;
18838;SDS011;9548;56.920;14.804;2022-12-07T09:36:31;0.97;;;0.40;;
18838;SDS011;9548;56.920;14.804;2022-12-07T09:38:58;2.20;;;0.50;;
18838;SDS011;9548;56.920;14.804;2022-12-07T09:41:27;2.03;;;0.60;;
18838;SDS011;9548;56.920;14.804;2022-12-07T09:43:58;2.80;;;0.67;;
18838;SDS011;9548;56.920;14.804;2022-12-07T09:46:29;1.87;;;0.43;;
18838;SDS011;9548;56.920;14.804;2022-12-07T09:49:02;2.20;;;0.50;;
18838;SDS011;9548;56.920;14.804;2022-12-07T09:51:29;0.90;;;0.60;;
18838;SDS011;9548;56.920;14.804;2022-12-07T09:53:57;1.80;;;0.47;;
18838;SDS011;9548;56.920;14.804;2022-12-07T09:56:28;1.33;;;0.40;;
18838;SDS011;9548;56.920;14.804;2022-12-07T09:58:58;0.80;;;0.40;;
18838;SDS011;9548;56.920;14.804;2022-12-07T10:01:30;4.50;;;0.70;;
18838;SDS011;9548;56.920;14.804;2022-12-07T10:04:00;1.57;;;0.60;;
18838;SDS011;9548;56.920;14.804;2022-12-07T10:06:40;5.53;;;0.40;;
18838;SDS011;9548;56.920;14.804;2022-12-07T10:09:09;2.53;;;0.50;;
18838;SDS011;9548;56.920;14.804;2022-12-07T10:14:32;2.53;;;0.60;;
18838;SDS011;9548;56.920;14.804;2022-12-07T10:17:00;1.97;;;0.60;;
18838;SDS011;9548;56.920;14.804;2022-12-07T10:19:28;2.63;;;0.43;;
18838;SDS011;9548;56.920;14.804;2022-12-07T10:22:03;1.73;;;0.53;;
18838;SDS011;9548;56.920;14.804;2022-12-07T10:24:36;0.70;;;0.40;;
18838;SDS011;9548;56.920;14.804;2022-12-07T10:27:09;2.33;;;0.50;;
18838;SDS011;9548;56.920;14.804;2022-12-07T10:29:46;3.20;;;0.43;;
18838;SDS011;9548;56.920;14.804;2022-12-07T10:32:27;0.87;;;0.40;;
18838;SDS011;9548;56.920;14.804;2022-12-07T10:37:50;1.03;;;0.50;;
18838;SDS011;9548;56.920;14.804;2022-12-07T10:40:25;0.93;;;0.40;;
18838;SDS011;9548;56.920;14.804;2022-12-07T10:43:07;1.92;;;0.40;;
18838;SDS011;9548;56.920;14.804;2022-12-07T10:45:56;5.80;;;0.57;;
18838;SDS011;9548;56.920;14.804;2022-12-07T10:48:44;1.83;;;0.63;;
18838;SDS011;9548;56.920;14.804;2022-12-07T10:51:18;2.40;;;0.50;;
18838;SDS011;9548;56.920;14.804;2022-12-07T10:53:56;1.93;;;0.40;;
18838;SDS011;9548;56.920;14.804;2022-12-07T10:56:41;2.90;;;0.50;;
18838;SDS011;9548;56.920;14.804;2022-12-07T10:59:51;1.13;;;0.60;;
18838;SDS011;9548;56.920;14.804;2022-12-07T11:02:30;1.02;;;0.40;;
18838;SDS011;9548;56.920;14.804;2022-12-07T11:05:16;2.72;;;0.57;;
18838;SDS011;9548;56.920;14.804;2022-12-07T11:07:51;2.03;;;0.70;;
18838;SDS011;9548;56.920;14.804;2022-12-07T11:10:29;1.38;;;0.40;;
18838;SDS011;9548;56.920;14.804;2022-12-07T11:13:11;1.20;;;0.40;;
18838;SDS011;9548;56.920;14.804;2022-12-07T11:15:55;0.68;;;0.38;;
18838;SDS011;9548;56.920;14.804;2022-12-07T11:18:43;1.80;;;0.40;;
18838;SDS011;9548;56.920;14.804;2022-12-07T11:21:20;0.63;;;0.40;;
18838;SDS011;9548;56.920;14.804;2022-12-07T11:23:54;3.63;;;0.57;;
18838;SDS011;9548;56.920;14.804;2022-12-07T11:26:31;1.15;;;0.30;;
18838;SDS011;9548;56.920;14.804;2022-12-07T11:29:21;2.07;;;0.40;;
18838;SDS011;9548;56.920;14.804;2022-12-07T11:32:04;1.48;;;0.57;;
18838;SDS011;9548;56.920;14.804;2022-12-07T11:34:42;2.97;;;0.60;;
18838;SDS011;9548;56.920;14.804;2022-12-07T11:37:17;0.70;;;0.40;;
18838;SDS011;9548;56.920;14.804;2022-12-07T11:39:47;4.45;;;0.57;;
18838;SDS011;9548;56.920;14.804;2022-12-07T11:42:19;1.83;;;0.40;;
18838;SDS011;9548;56.920;14.804;2022-12-07T11:44:50;0.50;;;0.40;;
18838;SDS011;9548;56.920;14.804;2022-12-07T11:47:25;1.80;;;0.40;;
18838;SDS011;9548;56.920;14.804;2022-12-07T11:49:57;3.03;;;0.47;;
18838;SDS011;9548;56.920;14.804;2022-12-07T11:52:32;0.82;;;0.22;;
18838;SDS011;9548;56.920;14.804;2022-12-07T11:55:14;1.50;;;0.40;;
18838;SDS011;9548;56.920;14.804;2022-12-07T11:57:47;1.70;;;0.50;;
18838;SDS011;9548;56.920;14.804;2022-12-07T12:00:21;2.07;;;0.47;;
18838;SDS011;9548;56.920;14.804;2022-12-07T12:02:51;1.67;;;0.50;;
18838;SDS011;9548;56.920;14.804;2022-12-07T12:05:24;1.87;;;0.40;;
18838;SDS011;9548;56.920;14.804;2022-12-07T12:07:52;3.60;;;0.53;;
18838;SDS011;9548;56.920;14.804;2022-12-07T12:10:29;1.63;;;0.50;;
18838;SDS011;9548;56.920;14.804;2022-12-07T12:13:08;2.47;;;0.30;;
18838;SDS011;9548;56.920;14.804;2022-12-07T12:15:52;2.23;;;0.33;;
18838;SDS011;9548;56.920;14.804;2022-12-07T12:18:36;2.10;;;0.30;;
18838;SDS011;9548;56.920;14.804;2022-12-07T12:21:15;2.97;;;0.50;;
18838;SDS011;9548;56.920;14.804;2022-12-07T12:23:44;1.57;;;0.50;;
18838;SDS011;9548;56.920;14.804;2022-12-07T12:26:16;2.63;;;0.57;;
18838;SDS011;9548;56.920;14.804;2022-12-07T12:28:52;3.03;;;0.67;;
18838;SDS011;9548;56.920;14.804;2022-12-07T12:31:34;0.85;;;0.52;;
18838;SDS011;9548;56.920;14.804;2022-12-07T12:36:57;2.05;;;1.00;;
18838;SDS011;9548;56.920;14.804;2022-12-07T12:39:24;1.65;;;0.50;;
18838;SDS011;9548;56.920;14.804;2022-12-07T12:41:55;1.17;;;0.50;;
18838;SDS011;9548;56.920;14.804;2022-12-07T12:44:39;4.25;;;1.10;;
18838;SDS011;9548;56.920;14.804;2022-12-07T12:47:40;1.48;;;0.60;;
18838;SDS011;9548;56.920;14.804;2022-12-07T12:50:27;0.35;;;0.30;;
18838;SDS011;9548;56.920;14.804;2022-12-07T12:53:16;0.32;;;0.30;;
18838;SDS011;9548;56.920;14.804;2022-12-07T13:01:56;1.27;;;0.28;;
18838;SDS011;9548;56.920;14.804;2022-12-07T13:04:40;2.03;;;0.35;;
18838;SDS011;9548;56.920;14.804;2022-12-07T13:10:37;1.88;;;0.40;;
18838;SDS011;9548;56.920;14.804;2022-12-07T13:22:27;2.00;;;0.68;;
18838;SDS011;9548;56.920;14.804;2022-12-07T13:25:09;1.48;;;0.28;;
18838;SDS011;9548;56.920;14.804;2022-12-07T13:27:39;1.63;;;0.47;;
18838;SDS011;9548;56.920;14.804;2022-12-07T13:30:11;3.20;;;0.40;;
18838;SDS011;9548;56.920;14.804;2022-12-07T13:32:41;1.83;;;0.40;;
18838;SDS011;9548;56.920;14.804;2022-12-07T13:38:00;4.47;;;0.60;;
18838;SDS011;9548;56.920;14.804;2022-12-07T13:40:32;1.03;;;0.40;;
18838;SDS011;9548;56.920;14.804;2022-12-07T13:43:00;1.47;;;0.30;;
18838;SDS011;9548;56.920;14.804;2022-12-07T13:45:30;1.90;;;0.40;;
18838;SDS011;9548;56.920;14.804;2022-12-07T13:48:20;2.20;;;0.40;;
18838;SDS011;9548;56.920;14.804;2022-12-07T13:50:54;2.27;;;0.30;;
18838;SDS011;9548;56.920;14.804;2022-12-07T13:53:22;1.13;;;0.40;;
18838;SDS011;9548;56.920;14.804;2022-12-07T13:55:57;2.07;;;0.50;;
18838;SDS011;9548;56.920;14.804;2022-12-07T13:58:25;1.90;;;0.30;;
18838;SDS011;9548;56.920;14.804;2022-12-07T14:00:53;1.63;;;0.43;;
18838;SDS011;9548;56.920;14.804;2022-12-07T14:03:25;4.30;;;0.50;;
18838;SDS011;9548;56.920;14.804;2022-12-07T14:06:05;1.23;;;0.30;;
18838;SDS011;9548;56.920;14.804;2022-12-07T14:08:41;3.90;;;0.50;;
18838;SDS011;9548;56.920;14.804;2022-12-07T14:11:11;1.77;;;0.47;;
18838;SDS011;9548;56.920;14.804;2022-12-07T14:13:44;1.90;;;0.30;;
18838;SDS011;9548;56.920;14.804;2022-12-07T14:16:24;2.30;;;0.43;;
18838;SDS011;9548;56.920;14.804;2022-12-07T14:18:54;2.77;;;0.50;;
18838;SDS011;9548;56.920;14.804;2022-12-07T14:21:23;1.60;;;0.30;;
18838;SDS011;9548;56.920;14.804;2022-12-07T14:26:47;1.93;;;0.43;;
18838;SDS011;9548;56.920;14.804;2022-12-07T14:29:18;1.07;;;0.30;;
18838;SDS011;9548;56.920;14.804;2022-12-07T14:31:56;0.70;;;0.20;;
18838;SDS011;9548;56.920;14.804;2022-12-07T14:34:23;1.17;;;0.43;;
18838;SDS011;9548;56.920;14.804;2022-12-07T14:36:51;1.87;;;0.40;;
18838;SDS011;9548;56.920;14.804;2022-12-07T14:39:18;7.00;;;0.40;;
18838;SDS011;9548;56.920;14.804;2022-12-07T14:41:46;2.63;;;0.30;;
18838;SDS011;9548;56.920;14.804;2022-12-07T14:44:16;2.13;;;0.30;;
18838;SDS011;9548;56.920;14.804;2022-12-07T14:46:44;2.53;;;0.30;;
18838;SDS011;9548;56.920;14.804;2022-12-07T14:49:11;2.60;;;0.20;;
18838;SDS011;9548;56.920;14.804;2022-12-07T14:51:39;1.83;;;0.40;;
18838;SDS011;9548;56.920;14.804;2022-12-07T14:54:09;5.30;;;0.50;;
18838;SDS011;9548;56.920;14.804;2022-12-07T14:56:42;0.90;;;0.50;;
18838;SDS011;9548;56.920;14.804;2022-12-07T14:59:11;1.20;;;0.40;;
18838;SDS011;9548;56.920;14.804;2022-12-07T15:01:38;1.33;;;0.70;;
18838;SDS011;9548;56.920;14.804;2022-12-07T15:04:05;0.53;;;0.40;;
18838;SDS011;9548;56.920;14.804;2022-12-07T15:06:32;3.07;;;0.30;;
18838;SDS011;9548;56.920;14.804;2022-12-07T15:09:00;3.40;;;0.30;;
18838;SDS011;9548;56.920;14.804;2022-12-07T15:11:27;4.53;;;0.43;;
18838;SDS011;9548;56.920;14.804;2022-12-07T15:13:54;4.77;;;0.43;;
18838;SDS011;9548;56.920;14.804;2022-12-07T15:16:39;1.00;;;0.40;;
18838;SDS011;9548;56.920;14.804;2022-12-07T15:19:10;4.30;;;0.40;;
18838;SDS011;9548;56.920;14.804;2022-12-07T15:21:39;2.97;;;0.60;;
18838;SDS011;9548;56.920;14.804;2022-12-07T15:24:07;2.30;;;0.57;;
18838;SDS011;9548;56.920;14.804;2022-12-07T15:26:35;4.13;;;0.47;;
18838;SDS011;9548;56.920;14.804;2022-12-07T15:29:02;0.83;;;0.30;;
18838;SDS011;9548;56.920;14.804;2022-12-07T15:31:29;0.83;;;0.30;;
18838;SDS011;9548;56.920;14.804;2022-12-07T15:33:57;4.10;;;0.93;;
18838;SDS011;9548;56.920;14.804;2022-12-07T15:36:25;5.77;;;0.53;;
18838;SDS011;9548;56.920;14.804;2022-12-07T15:38:53;4.00;;;0.70;;
18838;SDS011;9548;56.920;14.804;2022-12-07T15:41:21;0.13;;;0.10;;
18838;SDS011;9548;56.920;14.804;2022-12-07T15:43:49;1.43;;;0.47;;
18838;SDS011;9548;56.920;14.804;2022-12-07T15:46:34;2.80;;;0.73;;